Sonic Adventure (DX): Overall Rankings

Records: Times | Rings | Scores | Races | Bosses | Freestyle
Leaders: Times | Rings | Scores | Races | Bosses | Freestyle | Overall
Rank Player Percent Points Date
1 Sonicspeedruner 97.9% 369 03-03-21
2 Gamepro011 97.6% 423 03-03-21
3 DarkPolarNight 96.3% 667 03-03-21
4 Jawzun 92.7% 1314 03-03-21
5 Dashjump 91.2% 1596 03-03-21
6 Avento128bits 89.2% 1950 03-03-21
7 DarkspinesSonic 89.1% 1963 03-03-21
8 ike6252 88.9% 2000 03-03-21
9 F-Man 87.1% 2337 03-03-21
10 Coolfansonic 86.9% 2365 03-03-21
11 TheRealShadnic 84.6% 2783 03-03-21
12 HyperSonic7701 83.9% 2909 03-03-21
13 yoshifan 82.1% 3249 03-03-21
14 Nim 81.9% 3287 03-03-21
15 frankoredstrato 81.6% 3332 03-03-21
16 francisco 80.7% 3502 03-03-21
17 Marth 80.3% 3563 03-03-21
18 InferSaime 79.2% 3775 03-03-21
19 PfoSonic 78.7% 3869 03-03-21
20 Paragod 78.3% 3937 03-03-21
21 THC98 77.4% 4095 03-03-21
22 Stefan 75.0% 4539 03-03-21
23 Dekuboy 73.8% 4743 03-03-21
24 RPGnutter 72.9% 4908 03-03-21
25 bertin 72.7% 4944 03-03-21
26 sonicam 70.7% 5310 03-03-21
27 drminus 69.2% 5586 03-03-21
28 chaos shadow 68.7% 5680 03-03-21
29 chainchump 65.4% 6286 03-03-21
30 Combo 64.7% 6397 03-03-21
31 SkyLights 63.5% 6616 03-03-21
32 xXMegaManXx 62.0% 6894 03-03-21
33 Diamond 61.7% 6958 03-03-21
34 Auriman1 59.5% 7350 03-03-21
34 GerbilSoft 59.5% 7350 03-03-21
36 OmegaDJ 59.4% 7372 03-03-21
37 magnum12 58.6% 7506 03-03-21
38 Thorn 56.4% 7911 03-03-21
39 P1 Pause 56.1% 7962 03-03-21
40 mike89 55.0% 8165 03-03-21
41 Dave Cramer 53.2% 8490 03-03-21
42 Groudon199 53.0% 8528 03-03-21
43 Parax 52.6% 8604 03-03-21
44 SPVLABS 52.0% 8707 03-03-21
45 Shadow Jacky 52.0% 8711 03-03-21
46 CoEmpathy 49.2% 9225 03-03-21
47 Zurggriff 48.5% 9339 03-03-21
48 Niczur 47.1% 9610 03-03-21
49 Psymar 47.0% 9628 03-03-21
50 Arch 46.1% 9776 03-03-21
51 Chao_Fan 45.3% 9927 03-03-21
52 mauserman 44.7% 10036 03-03-21
53 Quartz 44.1% 10151 03-03-21
54 teamblackarms 43.5% 10262 03-03-21
55 Psyknux 42.8% 10386 03-03-21
56 James_Bertolli 42.3% 10483 03-03-21
57 Cyan Ryan 42.2% 10489 03-03-21
58 NintenDan 41.9% 10549 03-03-21
59 Turbos 41.3% 10663 03-03-21
60 Webber3000 41.2% 10670 03-03-21
61 Ring Rush 41.1% 10699 03-03-21
62 Fr3nZy 41.0% 10718 03-03-21
63 Cream147 40.9% 10722 03-03-21
64 Siavash Tazari 40.7% 10766 03-03-21
65 videogamemaster777 40.7% 10769 03-03-21
66 buddychaos0415 40.1% 10875 03-03-21
67 SadisticMystic 39.6% 10973 03-03-21
68 ethmar 39.1% 11047 03-03-21
69 eggFL 38.6% 11138 03-03-21
70 Calfd 38.0% 11264 03-03-21
71 SB737 37.1% 11426 03-03-21
72 supersonic465 36.7% 11497 03-03-21
73 supersonicfan 36.0% 11613 03-03-21
74 FuzZerd 34.8% 11834 03-03-21
75 Aitamen 34.4% 11904 03-03-21
76 BigAL49 34.0% 11979 03-03-21
77 elecmouse101 34.0% 11989 03-03-21
78 danieldude 33.9% 11997 03-03-21
79 Austinf 33.3% 12111 03-03-21
80 metanightmare22 32.8% 12199 03-03-21
81 dabestgamer 32.5% 12262 03-03-21
82 MiStEr_ShAoLiN 32.2% 12311 03-03-21
83 Andrea Ritsu 31.4% 12447 03-03-21
84 itsPersonnal 31.2% 12496 03-03-21
85 Cybrax 30.4% 12644 03-03-21
86 JamminX42 30.3% 12646 03-03-21
87 SilvertheAlmighty 30.3% 12658 03-03-21
88 WeegeeZV 30.2% 12675 03-03-21
89 Mastakirby 29.9% 12731 03-03-21
90 VMU Player Banned 28.3% 13010 03-03-21
91 Staf 27.9% 13089 03-03-21
92 Omega Rafael Santos 27.8% 13104 03-03-21
93 The T 27.5% 13170 03-03-21
94 EngiNerd 27.3% 13204 03-03-21
95 lordmetalsonic 26.8% 13282 03-03-21
96 Hipertails12 26.5% 13346 03-03-21
97 welldooder64 26.2% 13399 03-03-21
98 GreatStar 26.0% 13435 03-03-21
99 The Great Lord Mick 25.9% 13461 03-03-21
100 Sondow 25.7% 13488 03-03-21
101 LinksDarkArrows 25.6% 13509 03-03-21
102 Skylace 24.6% 13691 03-03-21
103 a_moustache 23.7% 13847 03-03-21
104 Rolken 23.2% 13948 03-03-21
105 Spinballwizard 21.5% 14259 03-03-21
106 Xia 21.5% 14260 03-03-21
107 Kogen Player Banned 21.5% 14261 03-03-21
108 f0rever_zer0 21.1% 14330 03-03-21
109 Twilisailor 21.0% 14340 03-03-21
110 Don 20.9% 14355 03-03-21
111 Cutiefox 20.8% 14376 03-03-21
112 Miles9999 20.8% 14377 03-03-21
113 Game_Complete 20.8% 14388 03-03-21
114 iden1 20.7% 14407 03-03-21
115 andres430 20.2% 14487 03-03-21
116 Cruizer 19.9% 14536 03-03-21
117 iSonicKid2K 19.8% 14554 03-03-21
118 Pokemonmaster888 19.8% 14562 03-03-21
119 SADXTryHard 19.6% 14604 03-03-21
120 GarnetPrincess 19.1% 14681 03-03-21
121 N 18.9% 14718 03-03-21
122 AxlThunder 18.7% 14765 03-03-21
123 knuckles_sonic8 18.3% 14827 03-03-21
124 Team_Yoshi 17.9% 14916 03-03-21
125 KinkyCadence 17.8% 14928 03-03-21
126 The Knuckles Chao 17.7% 14941 03-03-21
127 Termon 17.5% 14985 03-03-21
128 LittleBigness 17.3% 15012 03-03-21
129 FoxBoy 17.3% 15018 03-03-21
130 SonicWinDX 17.2% 15027 03-03-21
131 Drakodan 16.5% 15167 03-03-21
132 Sonic Singularity 15.5% 15348 03-03-21
133 paulie9990 14.7% 15483 03-03-21
134 SilverSonic 14.2% 15586 03-03-21
135 MPit08 14.1% 15597 03-03-21
136 sonicd5 14.0% 15612 03-03-21
137 Mo Player Banned 13.8% 15655 03-03-21
138 koinu93 13.6% 15688 03-03-21
139 Cod4Scopes 13.2% 15755 03-03-21
140 HyperSonic64 13.1% 15771 03-03-21
141 Jerzia 13.1% 15782 03-03-21
142 booo95 13.0% 15790 03-03-21
142 Modest 13.0% 15790 03-03-21
144 Hunters13 13.0% 15798 03-03-21
145 Chawkk 12.8% 15827 03-03-21
146 SuperSonic101 12.7% 15857 03-03-21
147 Maxinfamily 12.6% 15874 03-03-21
148 R3FR4G 12.5% 15885 03-03-21
149 PsyBorg 12.3% 15917 03-03-21
150 LilZero 12.2% 15936 03-03-21
151 Kanimayo_Jp 12.2% 15940 03-03-21
152 Flying Fox 12.2% 15944 03-03-21
153 BrokenArthritis 12.0% 15972 03-03-21
154 Therio 11.7% 16040 03-03-21
155 sonicspeed 11.5% 16063 03-03-21
156 douglas 11.4% 16095 03-03-21
156 SonicAD 11.4% 16095 03-03-21
158 Matt_TY 11.1% 16143 03-03-21
159 thewaytodawnnn 11.1% 16148 03-03-21
160 ModifiedMonkee 11.0% 16167 03-03-21
161 Cooljay 10.5% 16249 03-03-21
162 SuperBlitzCraig 10.4% 16270 03-03-21
163 joecoolgames 10.4% 16277 03-03-21
164 SeaWolf 10.3% 16281 03-03-21
165 videogamer1014 10.1% 16324 03-03-21
166 AC-Tygo 9.9% 16361 03-03-21
167 welshmoose05 9.8% 16378 03-03-21
168 OddCook 9.6% 16409 03-03-21
169 crazy1993 9.5% 16429 03-03-21
170 TFEC Headshot 9.5% 16435 03-03-21
171 Mcshuggets 9.3% 16463 03-03-21
172 Mariobutch 9.3% 16464 03-03-21
173 niscool 9.1% 16513 03-03-21
174 Irregular Zero 9.0% 16523 03-03-21
175 nuckrieg 8.9% 16539 03-03-21
176 Shadowthegreat 8.7% 16574 03-03-21
177 superjupi 8.7% 16576 03-03-21
178 SirTobbii 8.6% 16590 03-03-21
179 sonamyfan666 8.4% 16630 03-03-21
180 Powerjohn25 8.4% 16632 03-03-21
181 iarebored 8.4% 16640 03-03-21
182 SaviourDC 8.3% 16656 03-03-21
182 SonicKnuckles 8.3% 16656 03-03-21
184 Badlex727 8.2% 16667 03-03-21
185 Werey 8.1% 16691 03-03-21
186 adf 8.0% 16715 03-03-21
187 Megaman EXE565 7.7% 16767 03-03-21
188 ArcticDragon 7.5% 16793 03-03-21
189 Platformer 7.3% 16836 03-03-21
190 timpkmn89 7.2% 16847 03-03-21
191 Zethor 7.2% 16850 03-03-21
192 Swift Hobo 7.1% 16863 03-03-21
193 FocusSight64 7.1% 16866 03-03-21
194 Vicklaw 7.0% 16882 03-03-21
195 wheatrich 7.0% 16884 03-03-21
196 Rickyman48 6.9% 16915 03-03-21
197 KitsuneYamaro 6.8% 16932 03-03-21
198 Sm4sh 6.7% 16944 03-03-21
199 Triseena 6.5% 16974 03-03-21
200 Destroyer121121 6.3% 17013 03-03-21
201 CyberShadow 6.3% 17015 03-03-21
202 Starlight Sable 6.3% 17018 03-03-21
203 slade23 6.3% 17021 03-03-21
204 dShadow 6.2% 17035 03-03-21
205 IsisDazs 6.1% 17050 03-03-21
206 BlankTH 5.9% 17089 03-03-21
207 Monkeh 5.8% 17113 03-03-21
208 SonicU260 5.6% 17144 03-03-21
209 Richied 5.5% 17160 03-03-21
210 DaDude 5.5% 17165 03-03-21
211 Swinkly 5.5% 17166 03-03-21
212 Crispian 5.4% 17170 03-03-21
213 Zip 5.3% 17190 03-03-21
214 VeritasDL 5.1% 17228 03-03-21
215 tal39h 5.0% 17250 03-03-21
216 ALundstrom10 4.9% 17262 03-03-21
217 Kirbymon30 4.9% 17266 03-03-21
218 soniccoloursunleashed 4.7% 17298 03-03-21
219 Drflash55 4.7% 17311 03-03-21
220 Bass 4.6% 17322 03-03-21
221 Yish 4.5% 17337 03-03-21
222 zapp 4.5% 17342 03-03-21
223 neaolas 4.5% 17343 03-03-21
224 UninspiredUsername 4.4% 17354 03-03-21
225 Sonicsuperstar1 4.4% 17357 03-03-21
226 superiorsonic 4.4% 17360 03-03-21
227 gamefreak1292 4.3% 17372 03-03-21
228 Sora_yx 4.2% 17399 03-03-21
229 Chaos_Overlord 4.0% 17439 03-03-21
230 TakaRikka 3.9% 17452 03-03-21
231 Valfore 3.8% 17461 03-03-21
232 Dage4Aquatic 3.8% 17474 03-03-21
233 ShinigamiMachine 3.7% 17485 03-03-21
234 ArthurVGCP 3.6% 17498 03-03-21
235 Regano1000 3.6% 17507 03-03-21
236 MK 3.5% 17521 03-03-21
237 Ace747 3.5% 17533 03-03-21
238 Jua Rever 3.3% 17564 03-03-21
239 Illidan 3.1% 17604 03-03-21
240 Venick409 3.1% 17605 03-03-21
241 HHNNBBHHN 3.0% 17606 03-03-21
242 Brian_pso 3.0% 17611 03-03-21
243 nman36 3.0% 17615 03-03-21
244 Sithwarrior26 3.0% 17616 03-03-21
245 Egor305 2.9% 17642 03-03-21
246 TheChaosEmeraIds 2.8% 17645 03-03-21
247 ingx24 2.8% 17646 03-03-21
248 SkyBon 2.8% 17655 03-03-21
249 Nickson98 2.8% 17657 03-03-21
250 dekki1234 2.7% 17661 03-03-21
251 FSSRandomvids 2.7% 17662 03-03-21
252 Fozer 2.6% 17679 03-03-21
253 sonic29887 2.6% 17683 03-03-21
254 Colomb_30 2.6% 17691 03-03-21
254 TheUltraBlur 2.6% 17691 03-03-21
256 Aiko 2.6% 17693 03-03-21
257 1stKirbyever 2.5% 17701 03-03-21
258 TimTH 2.4% 17718 03-03-21
259 Th4tN1nj4Turtl3 2.3% 17746 03-03-21
260 Cort_pso 2.2% 17753 03-03-21
261 Doom-9 2.2% 17759 03-03-21
262 ieatatsonic 2.2% 17761 03-03-21
263 Mariosonic15 2.1% 17772 03-03-21
264 MStitomix 2.1% 17784 03-03-21
265 HermitHelmet 2.0% 17789 03-03-21
266 arcfx1985 2.0% 17791 03-03-21
267 SuperSonic71087 2.0% 17802 03-03-21
268 Artie 1.9% 17808 03-03-21
268 Got4n 1.9% 17808 03-03-21
270 Questionguy555 1.9% 17815 03-03-21
271 Jose_15 1.9% 17817 03-03-21
272 djmat 1.8% 17832 03-03-21
273 SuperSonicfan9595 1.8% 17836 03-03-21
274 sonicandamy 1.7% 17855 03-03-21
275 LancexExWx 1.7% 17860 03-03-21
276 Paixii 1.6% 17863 03-03-21
277 son1cgu1tar 1.6% 17867 03-03-21
278 Heroes_Hater 1.6% 17877 03-03-21
279 BallzeH 1.5% 17884 03-03-21
280 Jamixesa 1.5% 17887 03-03-21
281 Mankster101 1.5% 17891 03-03-21
282 BecauseWarAnvil 1.5% 17896 03-03-21
283 Xandre69 1.4% 17898 03-03-21
284 Crydio 1.4% 17906 03-03-21
284 Shanekilz 1.4% 17906 03-03-21
286 SpiritDragon1995 1.4% 17909 03-03-21
287 MarewBFN 1.3% 17923 03-03-21
288 stanski 1.3% 17926 03-03-21
289 Sonique Hedgehog 1.3% 17929 03-03-21
290 Blue Infamy 1.2% 17943 03-03-21
291 p0ker 1.2% 17944 03-03-21
292 ErrortheCucco 1.1% 17954 03-03-21
293 Arthas 1.1% 17956 03-03-21
294 Rikum22 1.1% 17957 03-03-21
295 sonic1001 1.1% 17965 03-03-21
296 AJSIV 1.1% 17968 03-03-21
297 syco1098 1.0% 17971 03-03-21
298 IDGeek121 1.0% 17973 03-03-21
298 Sonic the Hedgehod16 1.0% 17973 03-03-21
300 WingedInsignia 1.0% 17974 03-03-21
301 ASINISTERTACO 1.0% 17981 03-03-21
302 sonicfan9 1.0% 17987 03-03-21
303 BlackArmsShadow 0.9% 17998 03-03-21
303 themachoman202 0.9% 17998 03-03-21
305 shadowblast63 Player Banned 0.8% 18006 03-03-21
306 Fivavoa 0.8% 18007 03-03-21
307 Ben1502 0.8% 18009 03-03-21
307 Greham Adelphis 0.8% 18009 03-03-21
307 Mr. Jones 0.8% 18009 03-03-21
310 MastaToken 0.8% 18010 03-03-21
310 TommyeAsY 0.8% 18010 03-03-21
312 darkstarblaze 0.8% 18011 03-03-21
313 ptorflaxendrosis 0.8% 18017 03-03-21
314 FlandreScarlet9999vr 0.8% 18018 03-03-21
315 Gvozdevik 0.8% 18019 03-03-21
316 Zeldocto 0.8% 18022 03-03-21
317 Knuckles 0.8% 18023 03-03-21
318 BeeAwwb 0.7% 18026 03-03-21
319 KaM Mark MaK 0.7% 18030 03-03-21
320 ShadouZaHejjihoggu 0.7% 18033 03-03-21
321 Sonic The Star 0.6% 18042 03-03-21
322 darkersupershadic 0.6% 18043 03-03-21
323 Sogeking 0.6% 18044 03-03-21
324 Sonic62 0.6% 18046 03-03-21
325 Sarger001 0.6% 18050 03-03-21
325 SonicK100 0.6% 18050 03-03-21
327 dragondragon18 0.6% 18051 03-03-21
327 Grady219 0.6% 18051 03-03-21
329 Shadygamerfreak 0.6% 18053 03-03-21
330 Jawaah 0.6% 18056 03-03-21
331 Antek 0.5% 18061 03-03-21
331 SpinDashMaster 0.5% 18061 03-03-21
333 Klaus 0.5% 18063 03-03-21
333 SilverK 0.5% 18063 03-03-21
335 BioShadow 0.5% 18069 03-03-21
336 Videogamer123 0.5% 18075 03-03-21
337 IcKY 0.5% 18078 03-03-21
338 oTaiIilLsS 0.4% 18085 03-03-21
339 isaihtb11 0.4% 18086 03-03-21
340 OhNoes! 0.4% 18090 03-03-21
341 Mad Andy 0.4% 18092 03-03-21
342 S-MS32X-S 0.4% 18093 03-03-21
342 zaktu40 0.4% 18093 03-03-21
344 gaara1234 0.4% 18096 03-03-21
345 gamed00d 0.3% 18101 03-03-21
346 Mister_Slick 0.3% 18106 03-03-21
347 Sonic06Fan 0.3% 18109 03-03-21
348 Rush Hero 0.3% 18112 03-03-21
349 ChaosNexuss 0.3% 18113 03-03-21
350 SonicMega167 0.2% 18118 03-03-21
351 Iwannabelink 0.2% 18121 03-03-21
351 sonknuck23 0.2% 18121 03-03-21
353 DanielTheFalcon 0.2% 18130 03-03-21
353 gamer1245 0.2% 18130 03-03-21
355 Burningskull123 0.1% 18137 03-03-21
356 Sonicontherun 0.1% 18148 03-03-21
357 Lil_Dude 0.1% 18150 03-03-21
358 antiwwe 0.0% 18154 03-03-21
359 Cbwade15 0.0% 18158 03-03-21
359 Genuine Hedgehog 0.0% 18158 03-03-21
361 Tyrouble 0.0% 18162 03-03-21
362 MakoHNM 0.0% 18169 03-03-21
362 MegabombBlade 0.0% 18169 03-03-21
362 neji_hyuuga 0.0% 18169 03-03-21
362 Over 0.0% 18169 03-03-21
362 sdj6707 Player Banned 0.0% 18169 03-03-21
362 Tran Sonic Fan Player Banned 0.0% 18169 03-03-21

This page is using the New Data Table System. [FUTURE]

Game ID: 3 | Category ID: 10
Hits: 79,518 | Hits This Month: 16 | DB Calls: 21 | Mem Usage: 1.12 MB | Time: 0.04s | Printable

The Sonic Center v3.9
Copyright 2003-2011 by The Sonic Center Team.